Bruceton, Tennessee
Current Conditions -  °F | °C
As of 1:15 PM on Tuesday 21 Oct 2014 (Local Time) from KPHT Reporting Station
Clear Clear  
Wind Chill: 70°   Ceiling: Unl
Heat Index: 70°   Visibility: 10mi
Dew Point: 45°   Wind: 8mph
Humidity: 40%   Direction: 320°NW
Pressure: 30.07"   Gusts: NA
Location:  36.04°N, 88.24°W
Report Text: KPHT 211815Z AUTO 32007KT 270V350 10SM CLR 21/07 A3007 RMK
Loading
Personal Weather Stations






























Interactive Weather Map
Tropical Storm Tracking
New forecast layout! Learn more

10-Day Weather Forecast

Advertisements
Track Severe Weather on mobile